»·PEaware :: WAT451 KSEA-KPHX

WAT451 :: KSEA-KPHX

FLIGHT INFORMATION

Flight Status: Arrived
Operator:
Walker Air Transport
More flights by this operator :: More flights under this callsign
Pilot: Anonymous 14874 (14874)
Aircraft: BOEING 737-800
(B738)
More flights by this aircraft type
Origin: KSEA Seattle-Tacoma Intl
United States
Destination: KPHX Phoenix Sky Harbor Intl
United States
More flights between these airports :: More routes between these airports
Route: SUMMA2 SUMMA LTJ IMB NEERO SLOWN BERYL CORKR TENTS BRUSR1
File this flight plan on PilotEdge
Remarks:
Altitude:
(Current/Filed)
35,000ft
Speed:
(Current/Filed)
446kts
Departed: 25-Jan-21 01:35 PM
Arrived: 25-Jan-21 04:01 PM
Distance/Time
Traveled:
962nm/2:26
Distance/Time
To Go:
Arrived

Flight Plot

Page will automatically refresh every two minutes.

Flight plan parsing failed; only flown route is shown


Map Options




Map Legend


Flown Route
Filed Route
Departure Airport
Arrival Airport
Navaid (VOR, NDB)
Fix

Horizontal Profiles

Position Reports

Time Latitude Longitude Heading Altitude Ground
Speed
25-Jan-21 13:05 47.439136 -122.303303 144 437ft 0kts
25-Jan-21 13:06 47.439136 -122.303303 144 437ft 0kts
25-Jan-21 13:07 47.439136 -122.303303 144 437ft 0kts
25-Jan-21 13:08 47.439136 -122.303303 144 437ft 0kts
25-Jan-21 13:09 47.439136 -122.303303 144 437ft 0kts
25-Jan-21 13:10 47.439136 -122.303303 144 437ft 0kts
25-Jan-21 13:11 47.439136 -122.303303 144 437ft 0kts
25-Jan-21 13:12 47.439136 -122.303303 144 437ft 0kts
25-Jan-21 13:13 47.439136 -122.303303 144 437ft 0kts
25-Jan-21 13:14 47.439136 -122.303303 144 437ft 0kts
25-Jan-21 13:15 47.439136 -122.303303 144 437ft 0kts
25-Jan-21 13:16 47.439136 -122.303303 144 437ft 0kts
25-Jan-21 13:17 47.439136 -122.303303 144 437ft 0kts
25-Jan-21 13:18 47.439136 -122.303303 144 437ft 0kts
25-Jan-21 13:19 47.439136 -122.303303 144 437ft 0kts
25-Jan-21 13:20 47.439136 -122.303303 144 437ft 0kts
25-Jan-21 13:21 47.439136 -122.303303 144 437ft 0kts
25-Jan-21 13:22 47.439136 -122.303303 144 437ft 0kts
25-Jan-21 13:23 47.439136 -122.303303 144 437ft 0kts
25-Jan-21 13:24 47.439665 -122.303651 188 437ft 2kts
25-Jan-21 13:26 47.440067 -122.303090 261 437ft 0kts
25-Jan-21 13:27 47.440074 -122.303003 262 437ft 0kts
25-Jan-21 13:28 47.440003 -122.303464 258 437ft 6kts
25-Jan-21 13:29 47.440912 -122.306343 359 437ft 15kts
25-Jan-21 13:30 47.445998 -122.306316 0 437ft 20kts
25-Jan-21 13:31 47.451984 -122.306281 359 437ft 22kts
25-Jan-21 13:32 47.457843 -122.306116 354 437ft 18kts
25-Jan-21 13:33 47.462537 -122.306147 0 437ft 14kts
25-Jan-21 13:34 47.463667 -122.306624 291 437ft 8kts
25-Jan-21 13:35 47.455293 -122.307816 181 437ft 136kts
25-Jan-21 13:36 47.404882 -122.309481 198 2781ft 203kts
25-Jan-21 13:37 47.339247 -122.317343 177 5382ft 251kts
25-Jan-21 13:38 47.262521 -122.311155 177 8772ft 275kts
25-Jan-21 13:39 47.179113 -122.267689 161 11133ft 329kts
25-Jan-21 13:40 47.086036 -122.220611 163 14193ft 343kts
25-Jan-21 13:41 46.992608 -122.174385 162 16983ft 353kts
25-Jan-21 13:42 46.897462 -122.127242 162 19511ft 361kts
25-Jan-21 13:42 46.816348 -122.088803 164 21551ft 365kts
25-Jan-21 13:44 46.700299 -122.032575 161 24157ft 370kts
25-Jan-21 13:44 46.620221 -121.980560 155 25576ft 381kts
25-Jan-21 13:45 46.530220 -121.889014 144 27022ft 398kts
25-Jan-21 13:46 46.444815 -121.801903 148 28205ft 409kts
25-Jan-21 13:47 46.347350 -121.711479 149 29395ft 422kts
25-Jan-21 13:49 46.230600 -121.601445 147 30763ft 433kts
25-Jan-21 13:49 46.145758 -121.518643 146 31895ft 435kts
25-Jan-21 13:50 46.046369 -121.418630 145 33173ft 437kts
25-Jan-21 13:51 45.946256 -121.318937 146 34289ft 440kts
25-Jan-21 13:52 45.844917 -121.220533 147 34943ft 443kts
25-Jan-21 13:53 45.743190 -121.123826 150 34947ft 435kts
25-Jan-21 13:54 45.648753 -121.015066 137 34951ft 439kts
25-Jan-21 13:55 45.557729 -120.892871 137 34948ft 437kts
25-Jan-21 13:56 45.467900 -120.773265 137 34933ft 436kts
25-Jan-21 13:57 45.378834 -120.655351 137 34926ft 436kts
25-Jan-21 13:58 45.283271 -120.529461 137 34926ft 436kts
25-Jan-21 13:59 45.190375 -120.407679 137 34926ft 436kts
25-Jan-21 14:00 45.098418 -120.287691 138 34923ft 436kts
25-Jan-21 14:01 45.004953 -120.166299 138 34888ft 436kts
25-Jan-21 14:02 44.907991 -120.040959 138 34857ft 435kts
25-Jan-21 14:03 44.814860 -119.921153 139 34852ft 432kts
25-Jan-21 14:04 44.723500 -119.804164 139 34853ft 433kts
25-Jan-21 14:05 44.624268 -119.706732 152 34853ft 431kts
25-Jan-21 14:06 44.515246 -119.630552 156 34853ft 431kts
25-Jan-21 14:07 44.401083 -119.557613 156 34835ft 432kts
25-Jan-21 14:08 44.287131 -119.486363 156 34807ft 431kts
25-Jan-21 14:09 44.171092 -119.414454 156 34808ft 431kts
25-Jan-21 14:10 44.056225 -119.343663 157 34807ft 431kts
25-Jan-21 14:11 43.946618 -119.276428 157 34808ft 432kts
25-Jan-21 14:12 43.836158 -119.208941 157 34807ft 432kts
25-Jan-21 14:13 43.725836 -119.141811 157 34784ft 431kts
25-Jan-21 14:14 43.606756 -119.069655 157 34771ft 431kts
25-Jan-21 14:15 43.491865 -119.000335 157 34770ft 432kts
25-Jan-21 14:16 43.375664 -118.930516 157 34767ft 432kts
25-Jan-21 14:17 43.254941 -118.858292 157 34764ft 432kts
25-Jan-21 14:18 43.133088 -118.785709 157 34759ft 432kts
25-Jan-21 14:19 43.008567 -118.711866 157 34745ft 432kts
25-Jan-21 14:20 42.882204 -118.637265 157 34743ft 432kts
25-Jan-21 14:21 42.762305 -118.566788 157 34743ft 432kts
25-Jan-21 14:22 42.637895 -118.493975 157 34739ft 432kts
25-Jan-21 14:23 42.519872 -118.425198 157 34734ft 431kts
25-Jan-21 14:24 42.397381 -118.354124 157 34734ft 430kts
25-Jan-21 14:25 42.278153 -118.285248 158 34734ft 430kts
25-Jan-21 14:26 42.154954 -118.214364 158 34734ft 430kts
25-Jan-21 14:27 42.031032 -118.143362 158 34728ft 430kts
25-Jan-21 14:28 41.910388 -118.074534 158 34708ft 430kts
25-Jan-21 14:29 41.800157 -117.990437 144 34707ft 432kts
25-Jan-21 14:30 41.708376 -117.878336 136 34707ft 433kts
25-Jan-21 14:31 41.614657 -117.754287 136 34707ft 433kts
25-Jan-21 14:32 41.519999 -117.629103 136 34707ft 433kts
25-Jan-21 14:33 41.430571 -117.511228 136 34707ft 433kts
25-Jan-21 14:34 41.341751 -117.394613 136 34697ft 432kts
25-Jan-21 14:35 41.252573 -117.278006 137 34688ft 432kts
25-Jan-21 14:36 41.162309 -117.160459 137 34688ft 432kts
25-Jan-21 14:37 41.070435 -117.041302 137 34684ft 431kts
25-Jan-21 14:38 40.977482 -116.921245 137 34674ft 432kts
25-Jan-21 14:39 40.886402 -116.804087 137 34670ft 431kts
25-Jan-21 14:40 40.800537 -116.694082 137 34670ft 430kts
25-Jan-21 14:41 40.712412 -116.581612 137 34679ft 430kts
25-Jan-21 14:42 40.623961 -116.469169 137 34688ft 430kts
25-Jan-21 14:43 40.533152 -116.356755 140 34688ft 429kts
25-Jan-21 14:44 40.440994 -116.249476 140 34688ft 428kts
25-Jan-21 14:45 40.346010 -116.137531 140 34687ft 428kts
25-Jan-21 14:46 40.250762 -116.025196 139 34647ft 427kts
25-Jan-21 14:47 40.154835 -115.912356 139 34616ft 427kts
25-Jan-21 14:48 40.057048 -115.797751 139 34615ft 427kts
25-Jan-21 14:49 39.959611 -115.684009 139 34615ft 427kts
25-Jan-21 14:50 39.863163 -115.571863 140 34615ft 427kts
25-Jan-21 14:51 39.768371 -115.462079 140 34615ft 427kts
25-Jan-21 14:52 39.672098 -115.351005 140 34615ft 427kts
25-Jan-21 14:53 39.578453 -115.243413 140 34615ft 427kts
25-Jan-21 14:54 39.481266 -115.132161 141 34609ft 427kts
25-Jan-21 14:55 39.385391 -115.022827 141 34596ft 427kts
25-Jan-21 14:56 39.296019 -114.921279 141 34588ft 427kts
25-Jan-21 14:57 39.202353 -114.815239 141 34588ft 427kts
25-Jan-21 14:58 39.107034 -114.707727 141 34588ft 427kts
25-Jan-21 14:59 39.010196 -114.598910 141 34589ft 427kts
25-Jan-21 15:00 38.912832 -114.489923 141 34595ft 427kts
25-Jan-21 15:01 38.819593 -114.385943 141 34597ft 427kts
25-Jan-21 15:02 38.727284 -114.283395 142 34597ft 426kts
25-Jan-21 15:04 38.634006 -114.180135 143 34599ft 427kts
25-Jan-21 15:05 38.537869 -114.074074 143 34603ft 427kts
25-Jan-21 15:06 38.441894 -113.968575 143 34606ft 427kts
25-Jan-21 15:07 38.345317 -113.862815 143 34606ft 426kts
25-Jan-21 15:08 38.250809 -113.759690 143 34606ft 426kts
25-Jan-21 15:09 38.155820 -113.656414 143 34606ft 426kts
25-Jan-21 15:10 38.061555 -113.554283 143 34606ft 426kts
25-Jan-21 15:11 37.965733 -113.450826 143 34607ft 427kts
25-Jan-21 15:12 37.861242 -113.370902 156 34602ft 422kts
25-Jan-21 15:13 37.751724 -113.304665 160 34597ft 418kts
25-Jan-21 15:14 37.640498 -113.241915 160 34597ft 418kts
25-Jan-21 15:15 37.529523 -113.180307 160 34597ft 418kts
25-Jan-21 15:16 37.420715 -113.120300 161 34597ft 418kts
25-Jan-21 15:17 37.310780 -113.059912 161 34597ft 418kts
25-Jan-21 15:18 37.197684 -112.997998 161 34611ft 418kts
25-Jan-21 15:19 37.083337 -112.935614 161 34636ft 419kts
25-Jan-21 15:20 36.965980 -112.871799 161 34643ft 418kts
25-Jan-21 15:20 36.873697 -112.821771 161 34649ft 418kts
25-Jan-21 15:22 36.748400 -112.754058 162 34652ft 420kts
25-Jan-21 15:22 36.655796 -112.704163 162 34651ft 419kts
25-Jan-21 15:24 36.531441 -112.637368 162 34635ft 418kts
25-Jan-21 15:24 36.441602 -112.589269 162 34623ft 418kts
25-Jan-21 15:25 36.333259 -112.531412 162 34625ft 418kts
25-Jan-21 15:26 36.222738 -112.472572 162 34625ft 418kts
25-Jan-21 15:27 36.107882 -112.416147 174 34622ft 408kts
25-Jan-21 15:28 35.989450 -112.411119 187 34625ft 399kts
25-Jan-21 15:29 35.867126 -112.419739 188 34619ft 397kts
25-Jan-21 15:30 35.744899 -112.430025 188 34616ft 397kts
25-Jan-21 15:31 35.627867 -112.440113 189 34617ft 390kts
25-Jan-21 15:32 35.511550 -112.448412 184 34398ft 400kts
25-Jan-21 15:33 35.396583 -112.432529 176 32185ft 396kts
25-Jan-21 15:34 35.276370 -112.409243 176 30088ft 376kts
25-Jan-21 15:35 35.165723 -112.387275 175 28631ft 358kts
25-Jan-21 15:36 35.053558 -112.362870 175 28252ft 369kts
25-Jan-21 15:37 34.946388 -112.339595 175 27162ft 358kts
25-Jan-21 15:38 34.840247 -112.316600 175 26041ft 344kts
25-Jan-21 15:39 34.740839 -112.294692 175 24527ft 325kts
25-Jan-21 15:40 34.643102 -112.273283 174 22764ft 336kts
25-Jan-21 15:41 34.543273 -112.251339 174 20964ft 322kts
25-Jan-21 15:42 34.446981 -112.230284 174 19216ft 311kts
25-Jan-21 15:43 34.353612 -112.206184 172 17415ft 305kts
25-Jan-21 15:44 34.267255 -112.183765 172 15704ft 295kts
25-Jan-21 15:45 34.184380 -112.162277 172 14100ft 286kts
25-Jan-21 15:46 34.106300 -112.142168 172 12972ft 273kts
25-Jan-21 15:47 34.027911 -112.143386 188 11386ft 265kts
25-Jan-21 15:48 33.950186 -112.152295 185 9753ft 263kts
25-Jan-21 15:49 33.874621 -112.165657 191 8883ft 242kts
25-Jan-21 15:50 33.804563 -112.181343 189 8008ft 234kts
25-Jan-21 15:51 33.737661 -112.194184 188 7974ft 227kts
25-Jan-21 15:52 33.678303 -112.204556 188 7270ft 212kts
25-Jan-21 15:53 33.619449 -112.216710 189 6494ft 211kts
25-Jan-21 15:54 33.559953 -112.230561 190 5532ft 209kts
25-Jan-21 15:55 33.497790 -112.244193 189 4317ft 210kts
25-Jan-21 15:56 33.445031 -112.224578 119 3000ft 197kts
25-Jan-21 15:57 33.440763 -112.152835 94 3012ft 185kts
25-Jan-21 15:58 33.440788 -112.093343 91 2227ft 144kts
25-Jan-21 15:59 33.440952 -112.044695 91 1444ft 140kts
25-Jan-21 16:00 33.440829 -112.008473 91 1132ft 19kts
25-Jan-21 16:01 33.439816 -112.007362 179 1132ft 5kts
25-Jan-21 16:02 33.439035 -112.004214 87 1132ft 16kts
25-Jan-21 16:03 33.439020 -111.999443 92 1136ft 9kts
25-Jan-21 16:04 33.438323 -111.999181 204 1136ft 0kts
25-Jan-21 16:05 33.438323 -111.999181 204 1136ft 0kts

Navigation Log

Ident Type
Flight plan parsing failed, navigation log unavailable